createdAt,value
2022-11-18T00:01:39.421Z,99389.31
2022-11-18T00:04:06.252Z,99391.00
2022-11-18T00:06:38.475Z,99402.16
2022-11-18T00:09:23.860Z,99402.94
2022-11-18T00:12:15.387Z,99400.47
2022-11-18T00:14:42.252Z,99408.09
2022-11-18T00:17:09.426Z,99404.66
2022-11-18T00:19:40.381Z,99412.38
2022-11-18T00:22:11.712Z,99413.28
2022-11-18T00:24:40.282Z,99408.94
2022-11-18T00:27:07.308Z,99409.78
2022-11-18T00:29:43.309Z,99416.63
2022-11-18T00:32:10.272Z,99415.78
2022-11-18T00:34:55.651Z,99420.13
2022-11-18T00:37:25.249Z,99414.88
2022-11-18T00:39:58.663Z,99419.22
2022-11-18T00:42:48.264Z,99417.44
2022-11-18T00:45:15.267Z,99419.09
2022-11-18T00:47:42.108Z,99416.53
2022-11-18T00:50:09.614Z,99416.53
2022-11-18T00:52:36.441Z,99425.13
2022-11-18T00:55:03.457Z,99425.97
2022-11-18T00:57:30.249Z,99428.56
2022-11-18T00:59:57.121Z,99436.25
2022-11-18T01:02:23.925Z,99434.50
2022-11-18T01:04:50.758Z,99438.84
2022-11-18T01:07:17.667Z,99442.25
2022-11-18T01:09:44.554Z,99442.34
2022-11-18T01:12:30.459Z,99444.84
2022-11-18T01:14:59.346Z,99449.16
2022-11-18T01:17:26.119Z,99448.28
2022-11-18T01:19:53.006Z,99453.44
2022-11-18T01:22:19.847Z,99451.72
2022-11-18T01:24:46.881Z,99455.19
2022-11-18T01:27:13.788Z,99459.50
2022-11-18T01:29:40.660Z,99459.50
2022-11-18T01:32:24.961Z,99464.66
2022-11-18T01:34:52.499Z,99454.34
2022-11-18T01:37:19.421Z,99462.94
2022-11-18T01:39:46.304Z,99454.34
2022-11-18T01:42:17.759Z,99462.09
2022-11-18T01:44:58.874Z,99457.78
2022-11-18T01:47:34.351Z,99467.28
2022-11-18T01:50:02.408Z,99471.59
2022-11-18T01:52:31.149Z,99467.34
2022-11-18T01:55:03.593Z,99464.75
2022-11-18T01:57:32.344Z,99469.06
2022-11-18T02:00:03.879Z,99469.97
2022-11-18T02:02:33.173Z,99472.56
2022-11-18T02:05:02.546Z,99484.66
2022-11-18T02:07:29.460Z,99484.66
2022-11-18T02:10:00.007Z,99488.97
2022-11-18T02:12:26.919Z,99490.72
2022-11-18T02:14:54.274Z,99490.72
2022-11-18T02:17:38.310Z,99494.19
2022-11-18T02:20:40.010Z,99498.53
2022-11-18T02:23:28.045Z,99501.09
2022-11-18T02:26:52.822Z,99501.09
2022-11-18T02:29:26.779Z,99511.50
2022-11-18T02:31:56.702Z,99503.75
2022-11-18T02:34:37.953Z,99508.94
2022-11-18T02:37:09.228Z,99514.09
2022-11-18T02:39:48.075Z,99508.94
2022-11-18T02:42:17.323Z,99512.38
2022-11-18T02:44:49.828Z,99508.19
2022-11-18T02:47:17.569Z,99514.97
2022-11-18T02:50:09.013Z,99518.47
2022-11-18T02:52:38.980Z,99514.13
2022-11-18T02:55:09.180Z,99515.88
2022-11-18T02:57:47.830Z,99520.13
2022-11-18T03:00:15.398Z,99522.78
2022-11-18T03:02:58.568Z,99527.13
2022-11-18T03:05:45.979Z,99522.78
2022-11-18T03:08:19.603Z,99529.72
2022-11-18T03:11:03.392Z,99505.25
2022-11-18T03:13:41.828Z,99536.63
2022-11-18T03:16:17.138Z,99542.63
2022-11-18T03:19:03.864Z,99542.63
2022-11-18T03:21:43.658Z,99546.06
2022-11-18T03:24:24.829Z,99553.00
2022-11-18T03:27:00.874Z,99536.84
2022-11-18T03:29:39.169Z,99552.13
2022-11-18T03:32:15.873Z,99548.75
2022-11-18T03:34:48.168Z,99561.59
2022-11-18T03:37:18.067Z,99570.25
2022-11-18T03:39:52.410Z,99572.00
2022-11-18T03:42:40.550Z,99577.19
2022-11-18T03:45:14.873Z,99575.44
2022-11-18T03:47:47.856Z,99584.09
2022-11-18T03:50:30.393Z,99581.63
2022-11-18T03:52:58.098Z,99585.03
2022-11-18T03:55:30.703Z,99590.13
2022-11-18T03:58:08.005Z,99592.72
2022-11-18T04:00:59.523Z,99585.78
2022-11-18T04:03:26.509Z,99597.88
2022-11-18T04:06:01.805Z,99605.63
2022-11-18T04:08:34.035Z,99608.19
2022-11-18T04:11:08.766Z,99613.41
2022-11-18T04:13:37.555Z,99614.22
2022-11-18T04:16:07.197Z,99616.78
2022-11-18T04:18:34.032Z,99614.22
2022-11-18T04:21:00.910Z,99617.69
2022-11-18T04:23:27.807Z,99627.97
2022-11-18T04:26:03.683Z,99618.56
2022-11-18T04:28:30.489Z,99611.00
2022-11-18T04:30:57.322Z,99632.31
2022-11-18T04:33:24.115Z,99634.03
2022-11-18T04:35:50.969Z,99634.03
2022-11-18T04:38:21.787Z,99635.78
2022-11-18T04:40:49.052Z,99644.41
2022-11-18T04:43:15.905Z,99651.31
2022-11-18T04:45:42.758Z,99644.31
2022-11-18T04:48:09.639Z,99647.81
2022-11-18T04:50:36.517Z,99659.00
2022-11-18T04:53:03.380Z,99661.56
2022-11-18T04:55:30.267Z,99663.28
2022-11-18T04:57:57.112Z,99659.91
2022-11-18T05:00:29.387Z,99657.34
2022-11-18T05:02:56.301Z,99657.31
2022-11-18T05:05:23.124Z,99655.63
2022-11-18T05:07:51.407Z,99670.16
2022-11-18T05:10:18.328Z,99663.31
2022-11-18T05:12:52.699Z,99669.41
2022-11-18T05:15:34.095Z,99675.34
2022-11-18T05:18:01.006Z,99670.25
2022-11-18T05:20:27.836Z,99682.31
2022-11-18T05:22:57.444Z,99676.25
2022-11-18T05:25:24.355Z,99678.81
2022-11-18T05:27:51.215Z,99673.72
2022-11-18T05:30:18.275Z,99685.69
2022-11-18T05:32:45.118Z,99689.16
2022-11-18T05:35:12.147Z,99684.84
2022-11-18T05:37:39.019Z,99688.44
2022-11-18T05:40:06.647Z,99692.66
2022-11-18T05:42:52.002Z,99697.00
2022-11-18T05:45:19.485Z,99697.97
2022-11-18T05:48:01.421Z,99693.63
2022-11-18T05:50:28.320Z,99697.97
2022-11-18T05:52:55.189Z,99701.47
2022-11-18T05:55:27.502Z,99710.94
2022-11-18T05:57:54.435Z,99714.41
2022-11-18T06:00:21.483Z,99719.63
2022-11-18T06:02:51.814Z,99718.81
2022-11-18T06:05:19.688Z,99724.06
2022-11-18T06:07:46.758Z,99737.00
2022-11-18T06:10:21.345Z,99733.66
2022-11-18T06:12:51.420Z,99731.19
2022-11-18T06:15:26.884Z,99735.50
2022-11-18T06:18:19.403Z,99736.41
2022-11-18T06:20:46.944Z,99739.09
2022-11-18T06:23:13.939Z,99745.97
2022-11-18T06:25:41.784Z,99746.88
2022-11-18T06:28:12.311Z,99751.19
2022-11-18T06:30:39.850Z,99750.38
2022-11-18T06:33:07.009Z,99750.44
2022-11-18T06:35:33.992Z,99759.88
2022-11-18T06:38:01.100Z,99760.78
2022-11-18T06:40:33.203Z,99764.28
2022-11-18T06:43:27.179Z,99772.88
2022-11-18T06:46:16.943Z,99774.56
2022-11-18T06:48:43.785Z,99776.31
2022-11-18T06:51:11.218Z,99781.53
2022-11-18T06:53:38.260Z,99778.03
2022-11-18T06:56:06.281Z,99782.38
2022-11-18T06:58:33.194Z,99784.09
2022-11-18T07:01:21.671Z,99792.78
2022-11-18T07:03:49.581Z,99798.78
2022-11-18T07:06:18.965Z,99805.63
2022-11-18T07:08:47.250Z,99804.81
2022-11-18T07:11:16.824Z,99815.13
2022-11-18T07:13:44.458Z,99816.84
2022-11-18T07:16:14.562Z,99822.06
2022-11-18T07:18:42.517Z,99822.06
2022-11-18T07:21:15.347Z,99829.81
2022-11-18T07:23:42.739Z,99835.81
2022-11-18T07:26:10.318Z,99822.22
2022-11-18T07:28:37.712Z,99843.63
2022-11-18T07:31:15.950Z,99846.19
2022-11-18T07:33:44.069Z,99850.53
2022-11-18T07:36:16.196Z,99855.69
2022-11-18T07:38:43.744Z,99860.84
2022-11-18T07:41:19.339Z,99863.44
2022-11-18T07:43:47.252Z,99866.06
2022-11-18T07:46:25.894Z,99872.03
2022-11-18T07:48:55.123Z,99869.53
2022-11-18T07:51:24.778Z,99872.13
2022-11-18T07:53:51.872Z,99875.53
2022-11-18T07:56:19.529Z,99881.56
2022-11-18T07:58:46.773Z,99879.03
2022-11-18T08:01:15.082Z,99882.44
2022-11-18T08:03:42.592Z,99891.03
2022-11-18T08:06:11.732Z,99885.03
2022-11-18T08:08:39.191Z,99891.03
2022-11-18T08:11:09.748Z,99894.47
2022-11-18T08:13:37.048Z,99897.06
2022-11-18T08:16:05.313Z,99899.63
2022-11-18T08:18:32.854Z,99900.47
2022-11-18T08:21:04.172Z,99907.31
2022-11-18T08:23:34.029Z,99915.97
2022-11-18T08:26:05.942Z,99920.22
2022-11-18T08:28:33.278Z,99921.91
2022-11-18T08:31:00.360Z,99921.06
2022-11-18T08:33:27.286Z,99923.66
2022-11-18T08:35:54.208Z,99929.66
2022-11-18T08:38:21.118Z,99923.66
2022-11-18T08:40:48.249Z,99933.16
2022-11-18T08:43:15.120Z,99927.97
2022-11-18T08:45:42.140Z,99929.75
2022-11-18T08:48:08.953Z,99929.72
2022-11-18T08:50:35.887Z,99933.16
2022-11-18T08:53:02.746Z,99934.06
2022-11-18T08:55:29.555Z,99933.19
2022-11-18T08:57:56.452Z,99935.78
2022-11-18T09:00:23.527Z,99943.47
2022-11-18T09:02:50.612Z,99940.00
2022-11-18T09:05:17.548Z,99940.91
2022-11-18T09:07:44.569Z,99941.72
2022-11-18T09:10:11.574Z,99940.97
2022-11-18T09:12:38.478Z,99956.38
2022-11-18T09:15:13.455Z,99957.22
2022-11-18T09:17:40.964Z,99953.72
2022-11-18T09:20:11.064Z,99962.31
2022-11-18T09:22:39.147Z,99963.16
2022-11-18T09:25:06.564Z,99952.84
2022-11-18T09:27:36.352Z,99962.25
2022-11-18T09:30:03.590Z,99960.50
2022-11-18T09:32:30.410Z,99969.06
2022-11-18T09:34:57.271Z,99958.72
2022-11-18T09:37:24.161Z,99963.84
2022-11-18T09:39:51.098Z,99974.00
2022-11-18T09:42:23.912Z,99973.09
2022-11-18T09:44:58.772Z,99979.94
2022-11-18T09:47:28.229Z,99976.44
2022-11-18T09:50:14.811Z,99983.28
2022-11-18T09:53:19.438Z,99979.84
2022-11-18T09:55:47.783Z,99995.25
2022-11-18T09:58:31.272Z,99992.69
2022-11-18T10:00:58.332Z,99996.94
2022-11-18T10:03:29.460Z,100003.69
2022-11-18T10:06:09.512Z,100004.53
2022-11-18T10:08:55.248Z,100010.53
2022-11-18T10:11:26.425Z,100011.31
2022-11-18T10:14:08.489Z,100011.31
2022-11-18T10:16:39.416Z,100013.81
2022-11-18T10:19:30.290Z,100023.22
2022-11-18T10:22:24.668Z,100024.84
2022-11-18T10:24:54.427Z,100028.31
2022-11-18T10:27:22.174Z,100029.94
2022-11-18T10:29:54.254Z,100022.16
2022-11-18T10:32:21.237Z,100030.75
2022-11-18T10:34:54.152Z,100031.56
2022-11-18T10:40:25.980Z,100037.47
2022-11-18T10:42:52.923Z,100040.88
2022-11-18T10:45:22.656Z,100045.97
2022-11-18T10:48:18.464Z,100039.03
2022-11-18T10:50:55.478Z,100045.91
2022-11-18T10:53:41.847Z,100047.56
2022-11-18T10:56:13.450Z,100044.06
2022-11-18T10:58:49.309Z,100044.88
2022-11-18T11:01:16.254Z,100040.47
2022-11-18T11:03:52.494Z,100041.22
2022-11-18T11:06:39.530Z,100043.78
2022-11-18T11:09:06.463Z,100045.44
2022-11-18T11:11:40.432Z,100037.63
2022-11-18T11:14:17.323Z,100047.94
2022-11-18T11:16:55.382Z,100044.31
2022-11-18T11:19:25.321Z,100045.13
2022-11-18T11:21:52.531Z,100048.56
2022-11-18T11:24:21.267Z,100044.13
2022-11-18T11:30:11.783Z,100044.72
2022-11-18T11:32:54.550Z,100048.97
2022-11-18T11:35:54.205Z,100050.63
2022-11-18T11:38:33.139Z,100050.44
2022-11-18T11:41:23.094Z,100048.66
2022-11-18T11:44:26.950Z,100055.44
2022-11-18T11:47:32.156Z,100064.81
2022-11-18T11:50:07.928Z,100050.16
2022-11-18T11:52:44.642Z,100057.81
2022-11-18T11:55:22.263Z,100062.09
2022-11-18T11:57:54.829Z,100050.81
2022-11-18T12:00:21.893Z,100058.50
2022-11-18T12:03:00.920Z,100048.13
2022-11-18T12:05:36.297Z,100060.06
2022-11-18T12:08:09.949Z,100047.97
2022-11-18T12:11:34.308Z,100056.50
2022-11-18T12:14:09.933Z,100058.97
2022-11-18T12:16:46.571Z,100057.22
2022-11-18T12:19:15.917Z,100058.88
2022-11-18T12:21:45.912Z,100062.19
2022-11-18T12:24:31.426Z,100056.13
2022-11-18T12:27:04.636Z,100059.47
2022-11-18T12:29:50.197Z,100072.28
2022-11-18T12:32:31.274Z,100067.00
2022-11-18T12:35:05.982Z,100071.28
2022-11-18T12:37:32.764Z,100067.81
2022-11-18T12:40:00.809Z,100065.22
2022-11-18T12:42:54.844Z,100072.88
2022-11-18T12:45:40.164Z,100074.53
2022-11-18T12:48:41.850Z,100072.78
2022-11-18T12:51:14.704Z,100074.44
2022-11-18T12:53:53.205Z,100078.78
2022-11-18T12:56:23.020Z,100075.34
2022-11-18T12:59:00.371Z,100083.00
2022-11-18T13:01:35.286Z,100085.53
2022-11-18T13:04:16.721Z,100084.69
2022-11-18T13:06:44.868Z,100089.91
2022-11-18T13:09:24.835Z,100095.06
2022-11-18T13:12:16.785Z,100100.16
2022-11-18T13:15:03.561Z,100094.97
2022-11-18T13:17:58.633Z,100096.66
2022-11-18T13:20:30.940Z,100101.00
2022-11-18T13:23:45.802Z,100103.56
2022-11-18T13:26:18.932Z,100107.88
2022-11-18T13:29:03.333Z,100107.94
2022-11-18T13:31:46.215Z,100105.34
2022-11-18T13:34:40.190Z,100113.09
2022-11-18T13:37:39.964Z,100114.88
2022-11-18T13:40:23.454Z,100109.81
2022-11-18T13:42:50.890Z,100115.88
2022-11-18T13:45:18.744Z,100111.63
2022-11-18T13:47:52.790Z,100112.59
2022-11-18T13:50:36.026Z,100114.31
2022-11-18T13:53:24.097Z,100121.22
2022-11-18T13:56:23.015Z,100117.03
2022-11-18T14:01:37.249Z,100121.53
2022-11-18T14:04:16.771Z,100125.94
2022-11-18T14:06:43.855Z,100123.44
2022-11-18T14:09:31.552Z,100128.66
2022-11-18T14:12:09.093Z,100122.69
2022-11-18T14:14:38.466Z,100127.06
2022-11-18T14:17:20.748Z,100133.22
2022-11-18T14:19:50.100Z,100134.09
2022-11-18T14:22:20.390Z,100137.63
2022-11-18T14:25:24.474Z,100134.28
2022-11-18T14:27:56.915Z,100126.78
2022-11-18T14:30:41.584Z,100137.03
2022-11-18T14:33:12.855Z,100134.53
2022-11-18T14:35:41.305Z,100138.94
2022-11-18T14:41:09.422Z,100145.97
2022-11-18T14:43:36.527Z,100141.78
2022-11-18T14:46:12.795Z,100153.91
2022-11-18T14:48:39.796Z,100148.78
2022-11-18T14:51:06.689Z,100159.16
2022-11-18T14:53:33.650Z,100154.13
2022-11-18T14:56:00.660Z,100148.16
2022-11-18T14:58:27.521Z,100148.22
2022-11-18T15:00:54.651Z,100146.56
2022-11-18T15:03:21.689Z,100145.81
2022-11-18T15:05:48.982Z,100145.88
2022-11-18T15:08:16.739Z,100149.41
2022-11-18T15:10:43.719Z,100149.47
2022-11-18T15:13:10.640Z,100163.31
2022-11-18T15:15:37.544Z,100163.41
2022-11-18T15:18:04.541Z,100159.22
2022-11-18T15:20:31.349Z,100162.75
2022-11-18T15:22:58.276Z,100167.16
2022-11-18T15:25:25.049Z,100160.38
2022-11-18T15:27:52.175Z,100166.47
2022-11-18T15:30:19.119Z,100172.63
2022-11-18T15:32:46.020Z,100172.75
2022-11-18T15:35:13.415Z,100175.44
2022-11-18T15:37:40.839Z,100178.09
2022-11-18T15:40:08.218Z,100173.09
2022-11-18T15:42:42.328Z,100182.63
2022-11-18T15:45:14.926Z,100175.84
2022-11-18T15:47:41.824Z,100186.28
2022-11-18T15:50:09.065Z,100185.56
2022-11-18T15:52:35.944Z,100183.97
2022-11-18T15:55:03.262Z,100180.63
2022-11-18T15:57:30.168Z,100185.03
2022-11-18T15:59:57.035Z,100196.34
2022-11-18T16:02:23.811Z,100193.00
2022-11-18T16:04:50.665Z,100197.44
2022-11-18T16:07:17.582Z,100194.94
2022-11-18T16:10:03.173Z,100196.75
2022-11-18T16:12:47.995Z,100192.59
2022-11-18T16:15:35.316Z,100196.16
2022-11-18T16:18:03.408Z,100200.50
2022-11-18T16:20:30.583Z,100210.94
2022-11-18T16:22:57.730Z,100203.25
2022-11-18T16:25:24.830Z,100206.78
2022-11-18T16:27:52.320Z,100212.03
2022-11-18T16:30:37.685Z,100213.78
2022-11-18T16:33:04.923Z,100215.59
2022-11-18T16:35:31.901Z,100217.38
2022-11-18T16:37:58.795Z,100218.28
2022-11-18T16:40:28.605Z,100222.59
2022-11-18T16:43:15.648Z,100214.09
2022-11-18T16:45:50.810Z,100221.88
2022-11-18T16:48:17.706Z,100223.69
2022-11-18T16:50:44.615Z,100224.56
2022-11-18T16:53:11.503Z,100234.06
2022-11-18T16:55:38.363Z,100230.69
2022-11-18T16:58:05.209Z,100230.75
2022-11-18T17:00:59.833Z,100229.00
2022-11-18T17:03:18.958Z,100232.50
2022-11-18T17:05:45.810Z,100232.50
2022-11-18T17:08:12.676Z,100232.53
2022-11-18T17:10:39.534Z,100230.00
2022-11-18T17:13:06.419Z,100236.06
2022-11-18T17:15:35.890Z,100236.94
2022-11-18T17:18:02.790Z,100244.69
2022-11-18T17:20:29.567Z,100245.56
2022-11-18T17:22:56.445Z,100249.88
2022-11-18T17:25:23.311Z,100243.03
2022-11-18T17:27:50.173Z,100244.78
2022-11-18T17:30:17.470Z,100250.81
2022-11-18T17:32:44.347Z,100246.53
2022-11-18T17:35:11.200Z,100244.06
2022-11-18T17:37:38.050Z,100256.91
2022-11-18T17:40:05.474Z,100252.59
2022-11-18T17:42:32.349Z,100255.16
2022-11-18T17:44:59.245Z,100261.22
2022-11-18T17:47:26.231Z,100256.06
2022-11-18T17:49:53.089Z,100264.66
2022-11-18T17:52:19.989Z,100265.56
2022-11-18T17:54:46.845Z,100280.19
2022-11-18T17:57:13.748Z,100284.53
2022-11-18T17:59:40.615Z,100292.28
2022-11-18T18:02:07.604Z,100298.28
2022-11-18T18:04:34.478Z,100297.44
2022-11-18T18:07:01.384Z,100293.13
2022-11-18T18:09:31.010Z,100295.75
2022-11-18T18:11:59.910Z,100301.72
2022-11-18T18:14:26.739Z,100299.13
2022-11-18T18:16:54.183Z,100296.59
2022-11-18T18:19:22.433Z,100302.56
2022-11-18T18:21:49.795Z,100300.81
2022-11-18T18:24:19.581Z,100309.41
2022-11-18T18:26:47.197Z,100301.66
2022-11-18T18:29:14.347Z,100302.56
2022-11-18T18:31:41.312Z,100299.94
2022-11-18T18:34:08.299Z,100307.66
2022-11-18T18:36:35.290Z,100311.03
2022-11-18T18:39:02.700Z,100307.59
2022-11-18T18:41:30.606Z,100308.44
2022-11-18T18:43:57.645Z,100307.59
2022-11-18T18:46:29.400Z,100302.44
2022-11-18T18:48:57.053Z,100308.44
2022-11-18T18:51:24.970Z,100304.97
2022-11-18T18:53:52.468Z,100314.41
2022-11-18T18:56:19.539Z,100313.56
2022-11-18T18:58:46.515Z,100308.38
2022-11-18T19:01:15.466Z,100312.59
2022-11-18T19:03:43.461Z,100316.03
2022-11-18T19:06:50.206Z,100315.19
2022-11-18T19:09:09.297Z,100323.78
2022-11-18T19:11:55.755Z,100322.88
2022-11-18T19:14:24.143Z,100323.78
2022-11-18T19:16:52.390Z,100323.72
2022-11-18T19:19:42.250Z,100320.28
2022-11-18T19:22:10.690Z,100327.16
2022-11-18T19:27:24.982Z,100325.41
2022-11-18T19:29:51.916Z,100325.41
2022-11-18T19:32:19.028Z,100329.69
2022-11-18T19:34:45.849Z,100328.88
2022-11-18T19:37:12.924Z,100337.44
2022-11-18T19:39:39.849Z,100337.41
2022-11-18T19:42:07.556Z,100328.81
2022-11-18T19:44:34.483Z,100339.16
2022-11-18T19:47:01.455Z,100341.72
2022-11-18T19:49:28.255Z,100343.44
2022-11-18T19:51:55.169Z,100348.59
2022-11-18T19:54:22.174Z,100340.91
2022-11-18T19:56:49.113Z,100345.16
2022-11-18T19:59:16.298Z,100351.16
2022-11-18T20:01:43.510Z,100349.44
2022-11-18T20:04:10.454Z,100351.16
2022-11-18T20:06:38.050Z,100346.91
2022-11-18T20:09:09.390Z,100358.03
2022-11-18T20:11:36.510Z,100356.34
2022-11-18T20:14:03.757Z,100361.50
2022-11-18T20:16:30.866Z,100358.88
2022-11-18T20:19:06.364Z,100364.03
2022-11-18T20:21:36.738Z,100364.03
2022-11-18T20:24:05.684Z,100364.03
2022-11-18T20:26:38.269Z,100367.50
2022-11-18T20:29:06.949Z,100368.34
2022-11-18T20:31:35.412Z,100377.81
2022-11-18T20:34:03.545Z,100375.22
2022-11-18T20:36:36.439Z,100378.69
2022-11-18T20:39:06.308Z,100370.09
2022-11-18T20:41:33.564Z,100372.66
2022-11-18T20:44:00.963Z,100376.94
2022-11-18T20:46:28.713Z,100377.78
2022-11-18T20:48:56.044Z,100370.88
2022-11-18T20:51:25.497Z,100382.06
2022-11-18T20:53:54.309Z,100381.22
2022-11-18T20:56:23.932Z,100375.22
2022-11-18T20:58:50.929Z,100382.94
2022-11-18T21:01:29.396Z,100381.19
2022-11-18T21:03:58.756Z,100392.38
2022-11-18T21:06:28.049Z,100388.91
2022-11-18T21:08:59.994Z,100388.91
2022-11-18T21:11:27.211Z,100394.06
2022-11-18T21:14:13.723Z,100386.31
2022-11-18T21:16:44.208Z,100397.47
2022-11-18T21:19:11.721Z,100394.06
2022-11-18T21:21:44.647Z,100382.88
2022-11-18T21:24:13.773Z,100388.84
2022-11-18T21:26:42.425Z,100393.16
2022-11-18T21:29:12.322Z,100390.63
2022-11-18T21:31:39.826Z,100399.19
2022-11-18T21:34:18.104Z,100402.59
2022-11-18T21:36:49.199Z,100400.91
2022-11-18T21:39:20.518Z,100400.03
2022-11-18T21:41:52.043Z,100396.53
2022-11-18T21:44:22.006Z,100396.59
2022-11-18T21:46:48.876Z,100396.59
2022-11-18T21:49:15.794Z,100403.47
2022-11-18T21:51:43.914Z,100400.03
2022-11-18T21:54:12.444Z,100406.06
2022-11-18T21:56:39.343Z,100400.03
2022-11-18T21:59:07.570Z,100404.34
2022-11-18T22:01:34.686Z,100404.34
2022-11-18T22:04:03.922Z,100407.75
2022-11-18T22:06:32.801Z,100406.06
2022-11-18T22:09:00.682Z,100402.59
2022-11-18T22:11:28.317Z,100416.41
2022-11-18T22:13:55.704Z,100407.81
2022-11-18T22:16:24.273Z,100409.53
2022-11-18T22:18:58.816Z,100404.34
2022-11-18T22:21:28.099Z,100406.97
2022-11-18T22:24:00.067Z,100406.97
2022-11-18T22:26:31.853Z,100409.56
2022-11-18T22:29:01.632Z,100414.72
2022-11-18T22:31:28.817Z,100418.19
2022-11-18T22:33:58.046Z,100424.19
2022-11-18T22:36:36.914Z,100423.31
2022-11-18T22:39:05.022Z,100426.75
2022-11-18T22:41:53.313Z,100425.94
2022-11-18T22:44:20.833Z,100426.81
2022-11-18T22:46:49.658Z,100429.50
2022-11-18T22:49:16.738Z,100432.91
2022-11-18T22:51:44.022Z,100432.97
2022-11-18T22:57:03.172Z,100436.47
2022-11-18T22:59:32.408Z,100432.22
2022-11-18T23:01:59.527Z,100434.00
2022-11-18T23:04:27.638Z,100446.94
2022-11-18T23:06:54.540Z,100447.81
2022-11-18T23:09:23.248Z,100447.84
2022-11-18T23:12:12.330Z,100453.00
2022-11-18T23:14:39.399Z,100452.19
2022-11-18T23:17:06.458Z,100457.41
2022-11-18T23:19:34.975Z,100451.44
2022-11-18T23:22:05.888Z,100461.72
2022-11-18T23:24:36.112Z,100455.72
2022-11-18T23:27:08.823Z,100459.13
2022-11-18T23:29:35.859Z,100461.75
2022-11-18T23:32:08.523Z,100459.22
2022-11-18T23:34:37.307Z,100464.41
2022-11-18T23:37:05.353Z,100461.88
2022-11-18T23:39:34.869Z,100462.78
2022-11-18T23:42:06.560Z,100470.53
2022-11-18T23:45:10.664Z,100466.28
2022-11-18T23:47:40.627Z,100477.50
2022-11-18T23:50:07.968Z,100479.25
2022-11-18T23:52:34.959Z,100479.25
2022-11-18T23:55:01.860Z,100481.06
2022-11-18T23:57:28.722Z,100477.66
2022-11-18T23:59:55.630Z,100476.84
